Wetterdaten: Woche 30.08.10 - 05.09.10 (KW35)
Datum Zeit Temp. Innen Temp. Aussen UV X Diff Temp. Feuchte Inne Feuchte Auss Sonnenschein Luftdruck Regen ab 0,1 Wind Sonnenschein T Regendauer Windben
30.08.2010 00:00 18,3 C 10,7 C 0,0 UV-I 0,0 C 61 % 89 % 0 % 1005,8 hPa 0,4 l/m 7,2 km/h (2 Bft) 0,00 h 0,78 h 9,4 km/h (2 Bft)
30.08.2010 01:00 18,4 C 10,0 C 0,1 UV-I 0,0 C 61 % 91 % 0 % 1005,0 hPa 3,1 l/m 5,4 km/h (1 Bft) 0,00 h 1,00 h 7,0 km/h (2 Bft)
30.08.2010 02:00 18,5 C 10,4 C 0,1 UV-I 0,0 C 61 % 93 % 0 % 1004,6 hPa 1,2 l/m 8,3 km/h (2 Bft) 0,00 h 0,95 h 10,3 km/h (2 Bft)
30.08.2010 03:00 18,5 C 10,5 C 0,1 UV-I 0,0 C 61 % 93 % 0 % 1004,9 hPa 1,5 l/m 8,0 km/h (2 Bft) 0,00 h 0,72 h 7,5 km/h (2 Bft)
30.08.2010 04:00 18,5 C 10,5 C 0,1 UV-I 0,0 C 62 % 93 % 0 % 1004,6 hPa 6,3 l/m 7,5 km/h (2 Bft) 0,00 h 0,98 h 8,2 km/h (2 Bft)
30.08.2010 05:00 18,3 C 11,0 C 0,1 UV-I 0,0 C 64 % 94 % 0 % 1004,9 hPa 3,2 l/m 11,8 km/h (2 Bft) 0,00 h 1,00 h 13,5 km/h (3 Bft)
30.08.2010 06:00 18,4 C 10,6 C 0,1 UV-I 0,0 C 64 % 93 % 0 % 1006,1 hPa 3,6 l/m 8,2 km/h (2 Bft) 0,00 h 0,95 h 9,1 km/h (2 Bft)
30.08.2010 07:00 18,6 C 10,5 C 0,2 UV-I 0,0 C 63 % 94 % 0 % 1006,9 hPa 5,3 l/m 7,5 km/h (2 Bft) 0,00 h 0,97 h 8,4 km/h (2 Bft)
30.08.2010 08:00 18,7 C 10,7 C 0,4 UV-I 0,0 C 64 % 95 % 0 % 1008,1 hPa 4,0 l/m 7,6 km/h (2 Bft) 0,00 h 0,78 h 8,4 km/h (2 Bft)
30.08.2010 09:00 18,9 C 11,1 C 0,6 UV-I 0,0 C 64 % 95 % 0 % 1009,6 hPa 7,4 l/m 4,4 km/h (1 Bft) 0,00 h 0,67 h 4,2 km/h (1 Bft)
30.08.2010 10:00 19,1 C 11,9 C 1,9 UV-I 0,7 C 64 % 96 % 19 % 1010,5 hPa 1,9 l/m 5,8 km/h (2 Bft) 0,00 h 0,90 h 7,9 km/h (2 Bft)
30.08.2010 11:00 19,4 C 13,1 C 3,0 UV-I 1,1 C 64 % 95 % 32 % 1011,6 hPa 0,8 l/m 8,5 km/h (2 Bft) 0,00 h 0,77 h 10,1 km/h (2 Bft)
30.08.2010 12:00 19,8 C 13,9 C 3,5 UV-I 1,8 C 64 % 94 % 49 % 1012,6 hPa 0,4 l/m 9,2 km/h (2 Bft) 0,33 h 0,45 h 10,7 km/h (2 Bft)
30.08.2010 13:00 20,3 C 14,6 C 3,8 UV-I 1,3 C 64 % 90 % 38 % 1013,3 hPa 0,2 l/m 13,9 km/h (3 Bft) 0,00 h 0,37 h 15,5 km/h (3 Bft)
30.08.2010 14:00 20,8 C 15,3 C 3,7 UV-I 1,4 C 63 % 88 % 40 % 1014,2 hPa 1,5 l/m 11,9 km/h (2 Bft) 0,20 h 0,37 h 12,3 km/h (3 Bft)
30.08.2010 15:00 21,5 C 16,1 C 4,9 UV-I 2,2 C 61 % 86 % 62 % 1011,6 hPa 0,0 l/m 10,9 km/h (2 Bft) 0,23 h 0,00 h 13,4 km/h (3 Bft)
30.08.2010 16:00 22,3 C 16,9 C 4,1 UV-I 1,8 C 58 % 77 % 50 % 1008,5 hPa 0,0 l/m 14,4 km/h (3 Bft) 0,32 h 0,03 h 16,2 km/h (3 Bft)
30.08.2010 17:00 22,7 C 16,4 C 2,1 UV-I 0,9 C 56 % 80 % 26 % 996,2 hPa 0,7 l/m 10,0 km/h (2 Bft) 0,07 h 0,23 h 10,7 km/h (2 Bft)
30.08.2010 18:00 21,9 C 15,1 C 1,5 UV-I 0,3 C 58 % 82 % 9 % 996,2 hPa 0,0 l/m 8,4 km/h (2 Bft) 0,00 h 0,17 h 8,9 km/h (2 Bft)
30.08.2010 19:00 21,2 C 16,1 C 0,8 UV-I 0,1 C 59 % 78 % 4 % 996,2 hPa 0,0 l/m 8,4 km/h (2 Bft) 0,00 h 0,00 h 9,0 km/h (2 Bft)
30.08.2010 20:00 20,8 C 15,8 C 0,1 UV-I 0,0 C 60 % 76 % 0 % 996,2 hPa 0,0 l/m 10,0 km/h (2 Bft) 0,00 h 0,00 h 10,7 km/h (2 Bft)
30.08.2010 21:00 20,4 C 14,4 C 0,0 UV-I 0,0 C 61 % 79 % 0 % 996,2 hPa 0,0 l/m 2,5 km/h (1 Bft) 0,00 h 0,00 h 2,6 km/h (1 Bft)
30.08.2010 22:00 20,1 C 13,3 C 0,0 UV-I 0,0 C 62 % 83 % 0 % 996,2 hPa 0,0 l/m 2,3 km/h (1 Bft) 0,00 h 0,00 h 2,6 km/h (1 Bft)
30.08.2010 23:00 19,9 C 12,5 C 0,1 UV-I 0,0 C 62 % 86 % 0 % 996,2 hPa 0,0 l/m 1,0 km/h (0 Bft) 0,00 h 0,00 h 1,4 km/h (1 Bft)
31.08.2010 00:00 19,8 C 11,7 C 0,0 UV-I 0,0 C 62 % 89 % 0 % 996,2 hPa 0,0 l/m 0,2 km/h (0 Bft) 0,00 h 0,03 h 0,7 km/h (0 Bft)
31.08.2010 01:00 19,7 C 11,1 C 0,1 UV-I 0,0 C 63 % 91 % 0 % 996,2 hPa 0,0 l/m 0,2 km/h (0 Bft) 0,00 h 0,03 h 0,4 km/h (0 Bft)
31.08.2010 02:00 19,6 C 10,9 C 0,1 UV-I 0,0 C 63 % 92 % 0 % 996,2 hPa 0,0 l/m 0,4 km/h (0 Bft) 0,00 h 0,03 h 0,2 km/h (0 Bft)
31.08.2010 03:00 19,6 C 10,6 C 0,1 UV-I 0,0 C 63 % 93 % 0 % 996,2 hPa 0,0 l/m 0,1 km/h (0 Bft) 0,00 h 0,03 h 0,2 km/h (0 Bft)
31.08.2010 04:00 19,5 C 10,1 C 0,1 UV-I 0,0 C 63 % 93 % 0 % 996,2 hPa 0,0 l/m 0,0 km/h (0 Bft) 0,00 h 0,07 h 0,1 km/h (0 Bft)
31.08.2010 05:00 19,4 C 9,9 C 0,1 UV-I 0,0 C 63 % 94 % 0 % 996,2 hPa 0,0 l/m 0,0 km/h (0 Bft) 0,00 h 0,03 h 0,0 km/h (0 Bft)
31.08.2010 06:00 19,0 C 9,6 C 0,1 UV-I 0,0 C 61 % 94 % 0 % 1016,1 hPa 0,0 l/m 0,0 km/h (0 Bft) 0,00 h 0,03 h 0,0 km/h (0 Bft)
31.08.2010 07:00 19,0 C 9,8 C 0,5 UV-I 0,0 C 61 % 95 % 0 % 1024,1 hPa 0,0 l/m 0,0 km/h (0 Bft) 0,00 h 0,00 h 0,0 km/h (0 Bft)
31.08.2010 08:00 19,0 C 10,7 C 1,2 UV-I 1,0 C 61 % 95 % 24 % 1024,3 hPa 0,0 l/m 0,6 km/h (0 Bft) 0,20 h 0,00 h 0,9 km/h (0 Bft)
31.08.2010 09:00 19,1 C 13,3 C 1,9 UV-I 6,6 C 62 % 93 % 100 % 1024,7 hPa 0,0 l/m 4,5 km/h (1 Bft) 0,95 h 0,00 h 5,0 km/h (1 Bft)
31.08.2010 10:00 19,2 C 15,3 C 5,8 UV-I 6,0 C 62 % 84 % 100 % 1025,3 hPa 0,0 l/m 6,8 km/h (2 Bft) 0,88 h 0,00 h 8,0 km/h (2 Bft)
31.08.2010 11:00 19,5 C 16,4 C 5,7 UV-I 5,3 C 62 % 76 % 98 % 1025,7 hPa 0,0 l/m 7,3 km/h (2 Bft) 0,90 h 0,00 h 7,8 km/h (2 Bft)
31.08.2010 12:00 19,9 C 17,6 C 7,7 UV-I 6,0 C 60 % 68 % 99 % 1025,9 hPa 0,0 l/m 6,7 km/h (2 Bft) 0,62 h 0,00 h 9,3 km/h (2 Bft)
31.08.2010 13:00 20,5 C 18,6 C 9,6 UV-I 6,1 C 59 % 60 % 100 % 1025,9 hPa 0,0 l/m 7,7 km/h (2 Bft) 0,98 h 0,00 h 9,1 km/h (2 Bft)
31.08.2010 14:00 22,3 C 19,7 C 11,2 UV-I 6,7 C 54 % 55 % 100 % 1028,5 hPa 0,0 l/m 6,7 km/h (2 Bft) 0,92 h 0,00 h 7,3 km/h (2 Bft)
31.08.2010 15:00 24,1 C 20,5 C 9,6 UV-I 5,8 C 48 % 52 % 100 % 1027,7 hPa 0,0 l/m 5,9 km/h (2 Bft) 0,92 h 0,00 h 6,7 km/h (2 Bft)
31.08.2010 16:00 25,3 C 20,5 C 7,9 UV-I 5,7 C 45 % 52 % 100 % 1028,0 hPa 0,0 l/m 8,5 km/h (2 Bft) 0,87 h 0,00 h 10,4 km/h (2 Bft)
31.08.2010 17:00 25,1 C 19,5 C 3,1 UV-I 2,4 C 45 % 54 % 53 % 1025,3 hPa 0,0 l/m 6,3 km/h (2 Bft) 0,32 h 0,00 h 8,3 km/h (2 Bft)
31.08.2010 18:00 23,6 C 17,8 C 1,1 UV-I 0,0 C 47 % 63 % 1 % 1023,4 hPa 0,0 l/m 6,2 km/h (2 Bft) 0,00 h 0,00 h 6,4 km/h (2 Bft)
31.08.2010 19:00 22,9 C 16,5 C 0,7 UV-I 0,0 C 49 % 69 % 0 % 1022,5 hPa 0,0 l/m 1,7 km/h (1 Bft) 0,00 h 0,00 h 1,9 km/h (1 Bft)
31.08.2010 20:00 22,2 C 15,4 C 0,1 UV-I 0,0 C 51 % 75 % 0 % 1022,5 hPa 0,0 l/m 1,2 km/h (1 Bft) 0,00 h 0,00 h 1,8 km/h (1 Bft)
31.08.2010 21:00 21,6 C 15,2 C 0,0 UV-I 0,0 C 54 % 79 % 0 % 1022,7 hPa 0,0 l/m 0,2 km/h (0 Bft) 0,00 h 0,00 h 0,2 km/h (0 Bft)
31.08.2010 22:00 21,3 C 14,3 C 0,0 UV-I 0,0 C 55 % 81 % 0 % 1022,7 hPa 0,0 l/m 0,0 km/h (0 Bft) 0,00 h 0,00 h 0,0 km/h (0 Bft)
31.08.2010 23:00 21,0 C 12,7 C 0,1 UV-I 0,0 C 56 % 85 % 0 % 1022,5 hPa 0,0 l/m 0,0 km/h (0 Bft) 0,00 h 0,00 h 0,0 km/h (0 Bft)
01.09.2010 00:00 20,7 C 11,5 C 0,0 UV-I 0,0 C 57 % 87 % 0 % 1022,5 hPa 0,0 l/m 0,0 km/h (0 Bft) 0,00 h 0,07 h 0,0 km/h (0 Bft)
01.09.2010 01:00 20,5 C 10,9 C 0,1 UV-I 0,0 C 56 % 89 % 0 % 1022,1 hPa 0,0 l/m 0,0 km/h (0 Bft) 0,00 h 0,03 h 0,0 km/h (0 Bft)
01.09.2010 02:00 20,1 C 10,3 C 0,1 UV-I 0,0 C 57 % 91 % 0 % 1021,5 hPa 0,0 l/m 0,0 km/h (0 Bft) 0,00 h 0,03 h 0,0 km/h (0 Bft)
01.09.2010 03:00 19,7 C 9,8 C 0,1 UV-I 0,0 C 57 % 92 % 0 % 1021,3 hPa 0,0 l/m 0,0 km/h (0 Bft) 0,00 h 0,00 h 0,0 km/h (0 Bft)
01.09.2010 04:00 19,3 C 9,3 C 0,1 UV-I 0,0 C 58 % 92 % 0 % 1021,2 hPa 0,0 l/m 0,0 km/h (0 Bft) 0,00 h 0,03 h 0,0 km/h (0 Bft)
01.09.2010 05:00 19,0 C 8,8 C 0,1 UV-I 0,0 C 58 % 93 % 0 % 1020,7 hPa 0,0 l/m 0,0 km/h (0 Bft) 0,00 h 0,05 h 0,0 km/h (0 Bft)
01.09.2010 06:00 18,9 C 8,5 C 0,1 UV-I 0,0 C 59 % 93 % 0 % 1020,4 hPa 0,0 l/m 0,0 km/h (0 Bft) 0,00 h 0,13 h 0,0 km/h (0 Bft)
01.09.2010 07:00 18,8 C 8,4 C 0,3 UV-I 0,0 C 59 % 94 % 1 % 1020,6 hPa 0,0 l/m 0,0 km/h (0 Bft) 0,00 h 0,00 h 0,0 km/h (0 Bft)
01.09.2010 08:00 18,9 C 9,6 C 1,1 UV-I 1,1 C 59 % 94 % 28 % 1020,7 hPa 0,0 l/m 0,2 km/h (0 Bft) 0,23 h 0,00 h 0,3 km/h (0 Bft)
01.09.2010 09:00 19,0 C 11,8 C 3,1 UV-I 6,7 C 60 % 94 % 100 % 1020,8 hPa 0,0 l/m 0,9 km/h (0 Bft) 1,00 h 0,00 h 1,6 km/h (1 Bft)
01.09.2010 10:00 19,3 C 14,2 C 5,1 UV-I 6,3 C 60 % 87 % 100 % 1021,1 hPa 0,0 l/m 3,5 km/h (1 Bft) 1,00 h 0,00 h 4,8 km/h (1 Bft)
01.09.2010 11:00 19,7 C 15,2 C 3,3 UV-I 3,4 C 59 % 78 % 94 % 1021,4 hPa 0,0 l/m 2,2 km/h (1 Bft) 1,00 h 0,00 h 2,1 km/h (1 Bft)
01.09.2010 12:00 20,2 C 16,8 C 4,8 UV-I 7,4 C 58 % 70 % 100 % 1021,4 hPa 0,0 l/m 4,3 km/h (1 Bft) 1,00 h 0,00 h 5,9 km/h (2 Bft)
01.09.2010 13:00 21,0 C 17,3 C 5,5 UV-I 5,1 C 56 % 66 % 100 % 1021,7 hPa 0,0 l/m 4,9 km/h (1 Bft) 1,00 h 0,00 h 5,2 km/h (1 Bft)
01.09.2010 14:00 21,7 C 17,9 C 5,7 UV-I 5,0 C 54 % 64 % 100 % 1021,9 hPa 0,0 l/m 5,7 km/h (1 Bft) 1,00 h 0,00 h 7,3 km/h (2 Bft)
01.09.2010 15:00 22,4 C 18,3 C 5,7 UV-I 4,8 C 52 % 65 % 100 % 1022,2 hPa 0,0 l/m 6,2 km/h (2 Bft) 0,93 h 0,00 h 8,4 km/h (2 Bft)
01.09.2010 16:00 23,4 C 18,5 C 5,0 UV-I 4,8 C 50 % 65 % 90 % 1023,5 hPa 0,0 l/m 5,3 km/h (1 Bft) 0,75 h 0,00 h 5,8 km/h (2 Bft)
01.09.2010 17:00 23,4 C 17,8 C 3,1 UV-I 2,2 C 49 % 66 % 64 % 1021,8 hPa 0,0 l/m 5,8 km/h (2 Bft) 0,27 h 0,00 h 5,6 km/h (1 Bft)
01.09.2010 18:00 23,0 C 17,9 C 1,7 UV-I 0,7 C 50 % 66 % 20 % 1020,8 hPa 0,0 l/m 3,7 km/h (1 Bft) 0,00 h 0,00 h 4,9 km/h (1 Bft)
01.09.2010 19:00 22,6 C 17,0 C 0,7 UV-I 0,0 C 51 % 69 % 0 % 1020,3 hPa 0,0 l/m 6,9 km/h (2 Bft) 0,00 h 0,00 h 6,8 km/h (2 Bft)
01.09.2010 20:00 21,9 C 15,2 C 0,0 UV-I 0,0 C 53 % 79 % 0 % 1019,9 hPa 0,0 l/m 1,4 km/h (1 Bft) 0,00 h 0,00 h 0,8 km/h (0 Bft)
01.09.2010 21:00 21,2 C 13,7 C 0,1 UV-I 0,0 C 55 % 84 % 0 % 1019,9 hPa 0,0 l/m 0,0 km/h (0 Bft) 0,00 h 0,03 h 0,0 km/h (0 Bft)
01.09.2010 22:00 20,9 C 12,7 C 0,1 UV-I 0,0 C 56 % 88 % 0 % 1020,0 hPa 0,0 l/m 0,0 km/h (0 Bft) 0,00 h 0,03 h 0,0 km/h (0 Bft)
01.09.2010 23:00 20,6 C 12,3 C 0,0 UV-I 0,0 C 57 % 90 % 0 % 1020,1 hPa 0,0 l/m 0,0 km/h (0 Bft) 0,00 h 0,05 h 0,0 km/h (0 Bft)
02.09.2010 00:00 20,4 C 11,5 C 0,1 UV-I 0,0 C 58 % 91 % 0 % 1020,0 hPa 0,0 l/m 0,0 km/h (0 Bft) 0,00 h 0,10 h 0,0 km/h (0 Bft)
02.09.2010 01:00 20,1 C 10,9 C 0,0 UV-I 0,0 C 59 % 92 % 0 % 1019,7 hPa 0,0 l/m 0,0 km/h (0 Bft) 0,00 h 0,07 h 0,0 km/h (0 Bft)
02.09.2010 02:00 19,8 C 10,2 C 0,0 UV-I 0,0 C 59 % 93 % 0 % 1019,2 hPa 0,0 l/m 0,0 km/h (0 Bft) 0,00 h 0,07 h 0,0 km/h (0 Bft)
02.09.2010 03:00 19,6 C 9,7 C 0,0 UV-I 0,0 C 59 % 93 % 0 % 1019,1 hPa 0,0 l/m 0,0 km/h (0 Bft) 0,00 h 0,03 h 0,0 km/h (0 Bft)
02.09.2010 04:00 19,4 C 9,3 C 0,0 UV-I 0,0 C 60 % 93 % 0 % 1018,9 hPa 0,0 l/m 0,0 km/h (0 Bft) 0,00 h 0,00 h 0,0 km/h (0 Bft)
02.09.2010 05:00 19,2 C 9,0 C 0,0 UV-I 0,0 C 60 % 93 % 0 % 1019,0 hPa 0,0 l/m 0,0 km/h (0 Bft) 0,00 h 0,20 h 0,0 km/h (0 Bft)
02.09.2010 06:00 19,2 C 8,6 C 0,0 UV-I 0,0 C 60 % 94 % 0 % 1019,0 hPa 0,0 l/m 0,0 km/h (0 Bft) 0,00 h 0,03 h 0,0 km/h (0 Bft)
02.09.2010 07:00 19,0 C 8,7 C 0,0 UV-I 0,0 C 59 % 94 % 0 % 1019,2 hPa 0,0 l/m 0,0 km/h (0 Bft) 0,00 h 0,00 h 0,0 km/h (0 Bft)
02.09.2010 08:00 19,0 C 9,9 C 0,4 UV-I 0,8 C 60 % 95 % 24 % 1019,4 hPa 0,0 l/m 0,3 km/h (0 Bft) 0,00 h 0,00 h 0,8 km/h (0 Bft)
02.09.2010 09:00 19,2 C 12,1 C 1,2 UV-I 4,2 C 60 % 95 % 99 % 1019,8 hPa 0,0 l/m 1,5 km/h (1 Bft) 1,00 h 0,00 h 1,5 km/h (1 Bft)
02.09.2010 10:00 19,6 C 14,4 C 2,4 UV-I 5,9 C 60 % 92 % 100 % 1020,1 hPa 0,0 l/m 1,1 km/h (0 Bft) 1,00 h 0,00 h 1,5 km/h (1 Bft)
02.09.2010 11:00 20,0 C 16,1 C 2,5 UV-I 4,6 C 59 % 82 % 99 % 1020,5 hPa 0,0 l/m 4,2 km/h (1 Bft) 1,00 h 0,00 h 5,6 km/h (1 Bft)
02.09.2010 12:00 20,5 C 17,3 C 2,9 UV-I 4,7 C 59 % 73 % 95 % 1020,5 hPa 0,0 l/m 5,5 km/h (1 Bft) 0,83 h 0,00 h 7,1 km/h (2 Bft)
02.09.2010 13:00 21,1 C 17,7 C 4,7 UV-I 3,7 C 59 % 70 % 97 % 1020,8 hPa 0,0 l/m 8,0 km/h (2 Bft) 0,95 h 0,00 h 11,3 km/h (2 Bft)
02.09.2010 14:00 21,7 C 18,0 C 4,6 UV-I 3,2 C 57 % 65 % 92 % 1020,8 hPa 0,0 l/m 7,4 km/h (2 Bft) 1,00 h 0,00 h 11,2 km/h (2 Bft)
02.09.2010 15:00 22,1 C 18,2 C 3,8 UV-I 3,1 C 55 % 65 % 83 % 1020,8 hPa 0,0 l/m 5,0 km/h (1 Bft) 0,43 h 0,00 h 6,4 km/h (2 Bft)
02.09.2010 16:00 22,2 C 17,8 C 2,2 UV-I 1,3 C 55 % 67 % 36 % 1020,4 hPa 0,0 l/m 6,4 km/h (2 Bft) 0,00 h 0,07 h 8,5 km/h (2 Bft)
02.09.2010 17:00 21,9 C 17,2 C 1,2 UV-I 0,2 C 55 % 71 % 6 % 1020,0 hPa 0,0 l/m 5,2 km/h (1 Bft) 0,00 h 0,57 h 6,9 km/h (2 Bft)
02.09.2010 18:00 21,5 C 16,5 C 1,1 UV-I 0,1 C 56 % 78 % 2 % 1019,8 hPa 0,1 l/m 4,9 km/h (1 Bft) 0,00 h 0,43 h 6,1 km/h (2 Bft)
02.09.2010 19:00 21,3 C 16,3 C 0,5 UV-I 0,1 C 57 % 80 % 2 % 1019,9 hPa 0,0 l/m 6,4 km/h (2 Bft) 0,00 h 0,00 h 7,0 km/h (2 Bft)
02.09.2010 20:00 21,0 C 15,7 C 0,0 UV-I 0,0 C 58 % 84 % 0 % 1019,9 hPa 0,0 l/m 3,3 km/h (1 Bft) 0,00 h 0,00 h 5,4 km/h (1 Bft)
02.09.2010 21:00 20,7 C 15,0 C 0,1 UV-I 0,0 C 59 % 87 % 0 % 1020,1 hPa 0,0 l/m 3,2 km/h (1 Bft) 0,00 h 0,00 h 4,2 km/h (1 Bft)
02.09.2010 22:00 20,4 C 14,3 C 0,1 UV-I 0,0 C 60 % 88 % 0 % 1020,3 hPa 0,0 l/m 0,4 km/h (0 Bft) 0,00 h 0,00 h 1,4 km/h (1 Bft)
02.09.2010 23:00 20,2 C 13,0 C 0,1 UV-I 0,0 C 61 % 90 % 0 % 1020,4 hPa 0,0 l/m 0,0 km/h (0 Bft) 0,00 h 0,00 h 0,0 km/h (0 Bft)
03.09.2010 00:00 20,0 C 12,0 C 0,1 UV-I 0,0 C 61 % 91 % 0 % 1020,4 hPa 0,0 l/m 0,0 km/h (0 Bft) 0,00 h 0,07 h 0,0 km/h (0 Bft)
03.09.2010 01:00 19,9 C 11,3 C 0,1 UV-I 0,0 C 62 % 92 % 0 % 1020,4 hPa 0,0 l/m 0,0 km/h (0 Bft) 0,00 h 0,07 h 0,0 km/h (0 Bft)
03.09.2010 02:00 19,6 C 10,7 C 0,1 UV-I 0,0 C 62 % 92 % 0 % 1020,3 hPa 0,0 l/m 0,0 km/h (0 Bft) 0,00 h 0,03 h 0,0 km/h (0 Bft)
03.09.2010 03:00 19,5 C 10,3 C 0,1 UV-I 0,0 C 62 % 93 % 0 % 1020,0 hPa 0,0 l/m 0,0 km/h (0 Bft) 0,00 h 0,03 h 0,0 km/h (0 Bft)
03.09.2010 04:00 19,4 C 10,1 C 0,1 UV-I 0,0 C 62 % 93 % 0 % 1020,0 hPa 0,0 l/m 0,0 km/h (0 Bft) 0,00 h 0,03 h 0,0 km/h (0 Bft)
03.09.2010 05:00 19,2 C 10,2 C 0,1 UV-I 0,0 C 62 % 94 % 0 % 1020,2 hPa 0,0 l/m 0,0 km/h (0 Bft) 0,00 h 0,07 h 0,0 km/h (0 Bft)
03.09.2010 06:00 19,2 C 10,9 C 0,1 UV-I 0,0 C 62 % 95 % 0 % 1020,3 hPa 0,0 l/m 0,0 km/h (0 Bft) 0,00 h 0,07 h 0,0 km/h (0 Bft)
03.09.2010 07:00 19,3 C 11,4 C 0,2 UV-I 0,0 C 62 % 95 % 0 % 1020,4 hPa 0,0 l/m 0,0 km/h (0 Bft) 0,00 h 0,00 h 0,0 km/h (0 Bft)
03.09.2010 08:00 19,3 C 12,0 C 0,6 UV-I 0,2 C 62 % 95 % 5 % 1020,7 hPa 0,0 l/m 0,5 km/h (0 Bft) 0,00 h 0,00 h 1,8 km/h (1 Bft)
03.09.2010 09:00 19,5 C 12,5 C 1,0 UV-I 1,0 C 63 % 95 % 28 % 1021,1 hPa 0,0 l/m 0,2 km/h (0 Bft) 0,00 h 0,00 h 0,4 km/h (0 Bft)
03.09.2010 10:00 19,7 C 13,3 C 1,4 UV-I 2,0 C 62 % 95 % 57 % 1021,2 hPa 0,0 l/m 0,5 km/h (0 Bft) 0,00 h 0,00 h 0,8 km/h (0 Bft)
03.09.2010 11:00 20,1 C 14,4 C 2,0 UV-I 1,9 C 62 % 91 % 55 % 1021,6 hPa 0,0 l/m 0,5 km/h (0 Bft) 0,00 h 0,00 h 1,5 km/h (1 Bft)
03.09.2010 12:00 20,4 C 15,9 C 4,9 UV-I 3,1 C 61 % 84 % 75 % 1021,7 hPa 0,0 l/m 2,6 km/h (1 Bft) 0,37 h 0,00 h 5,4 km/h (1 Bft)
03.09.2010 13:00 21,2 C 17,9 C 8,1 UV-I 6,5 C 59 % 73 % 100 % 1021,9 hPa 0,0 l/m 3,9 km/h (1 Bft) 0,80 h 0,00 h 7,5 km/h (2 Bft)
03.09.2010 14:00 22,1 C 18,3 C 4,9 UV-I 4,8 C 56 % 69 % 99 % 1022,0 hPa 0,0 l/m 2,7 km/h (1 Bft) 0,73 h 0,00 h 3,6 km/h (1 Bft)
03.09.2010 15:00 22,8 C 19,3 C 5,0 UV-I 5,0 C 54 % 66 % 95 % 1022,5 hPa 0,0 l/m 2,4 km/h (1 Bft) 0,80 h 0,00 h 5,1 km/h (1 Bft)
03.09.2010 16:00 23,1 C 18,9 C 3,4 UV-I 3,4 C 53 % 66 % 84 % 1021,9 hPa 0,0 l/m 6,3 km/h (2 Bft) 0,47 h 0,00 h 8,8 km/h (2 Bft)
03.09.2010 17:00 23,3 C 18,8 C 2,3 UV-I 2,4 C 53 % 66 % 67 % 1021,8 hPa 0,0 l/m 5,0 km/h (1 Bft) 0,03 h 0,00 h 7,5 km/h (2 Bft)
03.09.2010 18:00 23,1 C 18,2 C 0,9 UV-I 0,6 C 53 % 68 % 18 % 1020,7 hPa 0,0 l/m 4,9 km/h (1 Bft) 0,00 h 0,00 h 6,6 km/h (2 Bft)
03.09.2010 19:00 22,6 C 17,5 C 0,4 UV-I 0,0 C 54 % 70 % 0 % 1019,9 hPa 0,0 l/m 2,3 km/h (1 Bft) 0,00 h 0,00 h 3,0 km/h (1 Bft)
03.09.2010 20:00 22,0 C 16,2 C 0,0 UV-I 0,0 C 56 % 76 % 0 % 1019,9 hPa 0,0 l/m 0,0 km/h (0 Bft) 0,00 h 0,00 h 0,0 km/h (0 Bft)
03.09.2010 21:00 21,5 C 14,5 C 0,0 UV-I 0,0 C 57 % 83 % 0 % 1020,1 hPa 0,0 l/m 0,0 km/h (0 Bft) 0,00 h 0,00 h 0,0 km/h (0 Bft)
03.09.2010 22:00 21,1 C 13,0 C 0,1 UV-I 0,0 C 58 % 87 % 0 % 1020,0 hPa 0,0 l/m 0,0 km/h (0 Bft) 0,00 h 0,10 h 0,0 km/h (0 Bft)
03.09.2010 23:00 20,8 C 12,6 C 0,1 UV-I 0,0 C 59 % 90 % 0 % 1019,9 hPa 0,0 l/m 0,0 km/h (0 Bft) 0,00 h 0,00 h 0,0 km/h (0 Bft)
04.09.2010 00:00 20,5 C 11,9 C 0,1 UV-I 0,0 C 60 % 91 % 0 % 1019,8 hPa 0,0 l/m 0,0 km/h (0 Bft) 0,00 h 0,03 h 0,0 km/h (0 Bft)
04.09.2010 01:00 20,2 C 11,2 C 0,1 UV-I 0,0 C 60 % 92 % 0 % 1019,9 hPa 0,0 l/m 0,0 km/h (0 Bft) 0,00 h 0,00 h 0,0 km/h (0 Bft)
04.09.2010 02:00 20,0 C 10,7 C 0,1 UV-I 0,0 C 60 % 92 % 0 % 1019,4 hPa 0,0 l/m 0,0 km/h (0 Bft) 0,00 h 0,03 h 0,0 km/h (0 Bft)
04.09.2010 03:00 19,8 C 10,2 C 0,0 UV-I 0,0 C 61 % 93 % 0 % 1019,2 hPa 0,0 l/m 0,0 km/h (0 Bft) 0,00 h 0,00 h 0,0 km/h (0 Bft)
04.09.2010 04:00 19,6 C 9,9 C 0,0 UV-I 0,0 C 61 % 93 % 0 % 1019,1 hPa 0,0 l/m 0,0 km/h (0 Bft) 0,00 h 0,00 h 0,0 km/h (0 Bft)
04.09.2010 05:00 19,4 C 9,5 C 0,0 UV-I 0,0 C 61 % 94 % 0 % 1019,2 hPa 0,0 l/m 0,0 km/h (0 Bft) 0,00 h 0,07 h 0,0 km/h (0 Bft)
04.09.2010 06:00 19,2 C 9,7 C 0,0 UV-I 0,0 C 60 % 95 % 0 % 1019,1 hPa 0,0 l/m 0,1 km/h (0 Bft) 0,00 h 0,00 h 1,0 km/h (0 Bft)
04.09.2010 07:00 19,2 C 10,4 C 0,2 UV-I 0,0 C 61 % 95 % 0 % 1019,6 hPa 0,0 l/m 1,6 km/h (1 Bft) 0,00 h 0,07 h 3,3 km/h (1 Bft)
04.09.2010 08:00 19,2 C 10,9 C 0,5 UV-I 0,1 C 62 % 95 % 4 % 1020,2 hPa 0,1 l/m 4,2 km/h (1 Bft) 0,00 h 0,00 h 6,1 km/h (2 Bft)
04.09.2010 09:00 19,5 C 11,8 C 1,1 UV-I 0,9 C 62 % 95 % 27 % 1020,7 hPa 0,0 l/m 6,2 km/h (2 Bft) 0,00 h 0,00 h 8,7 km/h (2 Bft)
04.09.2010 10:00 19,8 C 13,0 C 2,6 UV-I 2,5 C 62 % 94 % 71 % 1021,5 hPa 0,0 l/m 6,4 km/h (2 Bft) 0,20 h 0,00 h 9,0 km/h (2 Bft)
04.09.2010 11:00 20,2 C 15,1 C 3,4 UV-I 3,7 C 60 % 85 % 91 % 1021,7 hPa 0,0 l/m 3,7 km/h (1 Bft) 0,50 h 0,00 h 4,8 km/h (1 Bft)
04.09.2010 12:00 20,4 C 16,4 C 3,6 UV-I 3,4 C 59 % 75 % 81 % 1021,6 hPa 0,0 l/m 3,2 km/h (1 Bft) 0,40 h 0,00 h 5,2 km/h (1 Bft)
04.09.2010 13:00 21,1 C 18,6 C 8,9 UV-I 7,3 C 58 % 64 % 100 % 1021,8 hPa 0,0 l/m 5,9 km/h (2 Bft) 0,57 h 0,00 h 7,2 km/h (2 Bft)
04.09.2010 14:00 22,3 C 19,6 C 9,4 UV-I 7,3 C 54 % 57 % 100 % 1022,8 hPa 0,0 l/m 6,5 km/h (2 Bft) 0,58 h 0,00 h 8,6 km/h (2 Bft)
04.09.2010 15:00 23,3 C 19,7 C 6,4 UV-I 4,7 C 51 % 54 % 98 % 1023,9 hPa 0,0 l/m 7,3 km/h (2 Bft) 0,80 h 0,00 h 10,5 km/h (2 Bft)
04.09.2010 16:00 24,1 C 19,6 C 5,1 UV-I 3,6 C 49 % 54 % 88 % 1024,7 hPa 0,0 l/m 8,1 km/h (2 Bft) 0,73 h 0,00 h 11,2 km/h (2 Bft)
04.09.2010 17:00 24,2 C 19,4 C 3,6 UV-I 3,1 C 48 % 54 % 81 % 1023,2 hPa 0,0 l/m 7,8 km/h (2 Bft) 0,70 h 0,00 h 9,8 km/h (2 Bft)
04.09.2010 18:00 23,5 C 18,6 C 1,6 UV-I 0,2 C 48 % 58 % 6 % 1022,1 hPa 0,0 l/m 6,1 km/h (2 Bft) 0,00 h 0,00 h 7,2 km/h (2 Bft)
04.09.2010 19:00 23,0 C 17,6 C 0,6 UV-I 0,0 C 49 % 64 % 0 % 1021,5 hPa 0,0 l/m 0,9 km/h (0 Bft) 0,00 h 0,00 h 1,1 km/h (1 Bft)
04.09.2010 20:00 22,2 C 14,9 C 0,1 UV-I 0,0 C 52 % 75 % 0 % 1021,3 hPa 0,0 l/m 0,0 km/h (0 Bft) 0,00 h 0,00 h 0,0 km/h (0 Bft)
04.09.2010 21:00 21,6 C 13,1 C 0,1 UV-I 0,0 C 54 % 82 % 0 % 1021,7 hPa 0,0 l/m 0,0 km/h (0 Bft) 0,00 h 0,03 h 0,0 km/h (0 Bft)
04.09.2010 22:00 21,1 C 11,9 C 0,1 UV-I 0,0 C 55 % 86 % 0 % 1021,8 hPa 0,0 l/m 0,0 km/h (0 Bft) 0,00 h 0,03 h 0,0 km/h (0 Bft)
04.09.2010 23:00 20,8 C 11,0 C 0,1 UV-I 0,0 C 56 % 89 % 0 % 1022,0 hPa 0,0 l/m 0,0 km/h (0 Bft) 0,00 h 0,03 h 0,0 km/h (0 Bft)
05.09.2010 00:00 20,4 C 10,3 C 0,1 UV-I 0,0 C 56 % 90 % 0 % 1021,8 hPa 0,0 l/m 0,0 km/h (0 Bft) 0,00 h 0,17 h 0,0 km/h (0 Bft)
05.09.2010 01:00 20,1 C 9,8 C 0,1 UV-I 0,0 C 56 % 91 % 0 % 1021,7 hPa 0,0 l/m 0,1 km/h (0 Bft) 0,00 h 0,10 h 0,3 km/h (0 Bft)
05.09.2010 02:00 19,9 C 9,3 C 0,1 UV-I 0,0 C 56 % 92 % 0 % 1021,3 hPa 0,0 l/m 0,0 km/h (0 Bft) 0,00 h 0,00 h 0,0 km/h (0 Bft)
05.09.2010 03:00 19,6 C 8,8 C 0,1 UV-I 0,0 C 56 % 92 % 0 % 1021,2 hPa 0,0 l/m 0,0 km/h (0 Bft) 0,00 h 0,00 h 0,0 km/h (0 Bft)
05.09.2010 04:00 19,3 C 8,2 C 0,1 UV-I 0,0 C 56 % 92 % 0 % 1021,4 hPa 0,0 l/m 0,0 km/h (0 Bft) 0,00 h 0,03 h 0,0 km/h (0 Bft)
05.09.2010 05:00 19,1 C 7,8 C 0,1 UV-I 0,0 C 56 % 93 % 0 % 1021,3 hPa 0,0 l/m 0,0 km/h (0 Bft) 0,00 h 0,00 h 0,0 km/h (0 Bft)
05.09.2010 06:00 18,9 C 7,3 C 0,1 UV-I 0,0 C 56 % 93 % 0 % 1021,6 hPa 0,0 l/m 0,0 km/h (0 Bft) 0,00 h 0,07 h 0,0 km/h (0 Bft)
05.09.2010 07:00 18,7 C 7,1 C 0,4 UV-I 0,0 C 56 % 93 % 0 % 1021,8 hPa 0,0 l/m 0,0 km/h (0 Bft) 0,00 h 0,07 h 0,0 km/h (0 Bft)
05.09.2010 08:00 18,7 C 8,5 C 1,1 UV-I 0,6 C 57 % 94 % 14 % 1022,1 hPa 0,0 l/m 0,0 km/h (0 Bft) 0,10 h 0,00 h 0,0 km/h (0 Bft)
05.09.2010 09:00 18,9 C 12,0 C 2,3 UV-I 8,2 C 58 % 93 % 100 % 1022,4 hPa 0,0 l/m 0,0 km/h (0 Bft) 0,53 h 0,00 h 0,0 km/h (0 Bft)
05.09.2010 10:00 19,3 C 15,5 C 6,7 UV-I 8,0 C 57 % 75 % 100 % 1022,3 hPa 0,0 l/m 2,0 km/h (1 Bft) 0,88 h 0,00 h 5,2 km/h (1 Bft)
05.09.2010 11:00 19,6 C 17,4 C 6,4 UV-I 7,0 C 57 % 64 % 100 % 1022,2 hPa 0,0 l/m 4,7 km/h (1 Bft) 0,97 h 0,00 h 8,2 km/h (2 Bft)
05.09.2010 12:00 20,2 C 18,5 C 6,1 UV-I 6,9 C 55 % 58 % 100 % 1022,2 hPa 0,0 l/m 4,7 km/h (1 Bft) 0,77 h 0,00 h 6,0 km/h (2 Bft)
05.09.2010 13:00 20,9 C 19,5 C 9,0 UV-I 6,8 C 54 % 53 % 100 % 1022,2 hPa 0,0 l/m 4,3 km/h (1 Bft) 0,73 h 0,00 h 6,5 km/h (2 Bft)
05.09.2010 14:00 22,1 C 20,4 C 7,9 UV-I 5,3 C 51 % 48 % 100 % 1022,8 hPa 0,0 l/m 4,3 km/h (1 Bft) 0,63 h 0,00 h 6,1 km/h (2 Bft)
05.09.2010 15:00 22,8 C 20,3 C 7,0 UV-I 4,9 C 48 % 49 % 100 % 1023,7 hPa 0,0 l/m 4,5 km/h (1 Bft) 0,53 h 0,00 h 6,5 km/h (2 Bft)
05.09.2010 16:00 23,9 C 20,9 C 6,4 UV-I 5,3 C 46 % 47 % 100 % 1025,1 hPa 0,0 l/m 4,2 km/h (1 Bft) 0,43 h 0,00 h 6,5 km/h (2 Bft)
05.09.2010 17:00 24,5 C 21,4 C 3,9 UV-I 4,9 C 44 % 45 % 100 % 1024,0 hPa 0,0 l/m 3,5 km/h (1 Bft) 0,77 h 0,00 h 5,0 km/h (1 Bft)
05.09.2010 18:00 23,8 C 20,6 C 1,7 UV-I 1,7 C 45 % 48 % 44 % 1021,5 hPa 0,0 l/m 3,0 km/h (1 Bft) 0,17 h 0,00 h 4,9 km/h (1 Bft)
05.09.2010 19:00 23,1 C 18,4 C 0,7 UV-I 0,0 C 46 % 56 % 0 % 1021,0 hPa 0,0 l/m 0,5 km/h (0 Bft) 0,00 h 0,00 h 0,5 km/h (0 Bft)
05.09.2010 20:00 22,4 C 16,2 C 0,1 UV-I 0,0 C 47 % 63 % 0 % 1020,7 hPa 0,0 l/m 0,0 km/h (0 Bft) 0,00 h 0,00 h 0,0 km/h (0 Bft)
05.09.2010 21:00 21,7 C 14,9 C 0,1 UV-I 0,0 C 50 % 68 % 0 % 1020,9 hPa 0,0 l/m 0,0 km/h (0 Bft) 0,00 h 0,00 h 0,0 km/h (0 Bft)
05.09.2010 22:00 21,2 C 14,1 C 0,1 UV-I 0,0 C 51 % 71 % 0 % 1021,0 hPa 0,0 l/m 0,3 km/h (0 Bft) 0,00 h 0,00 h 1,0 km/h (0 Bft)
05.09.2010 23:00 20,9 C 13,2 C 0,1 UV-I 0,0 C 52 % 75 % 0 % 1020,8 hPa 0,0 l/m 0,1 km/h (0 Bft) 0,00 h 0,00 h 0,0 km/h (0 Bft)
Min-Datum _ 31.08.10 05.09.10 30.08.10 30.08.10 05.09.10 05.09.10 30.08.10 30.08.10 - 30.08.10 - - 30.08.10
_ Min-Zeit 06:17 07:20 00:00 00:00 17:28 17:46 00:00 16:57 - 23:17 - - 01:07
Minimum _ 18,0 C 7,0 C 0,0 UV-I 0,0 C 43 % 44 % 0 % 996,2 hPa - 0,0 km/h (0 Bft) - - 0,0 km/h (0 Bft)
Max-Datum _ 31.08.10 05.09.10 31.08.10 01.09.10 31.08.10 30.08.10 30.08.10 31.08.10 30.08.10 30.08.10 30.08.10 30.08.10 30.08.10
_ Max-Zeit 16:58 17:38 14:14 12:26 06:17 10:19 12:29 16:17 09:47 16:07 16:53 01:06 05:04
Maximum _ 25,7 C 21,9 C 11,4 UV-I 10,1 C 65 % 96 % 100 % 1030,8 hPa 7,4 l/m 18,5 km/h
SW (3 Bft)
0,03 h 0,03 h 48,0 km/h
W-SW (6 Bft)
Durchschnitt _ 20,6 C 13,8 C 1,9 UV-I 1,6 C 57 % 81 % 31 % 1018,2 hPa #41,5 l/m 3,1 km/h (1 Bft) #37:18 h #15:35 h 3,9 km/h (1 Bft)
© 2012 W. Hausmann